Happyland, Minnesota
Current Conditions -  °F | °C
As of 8:55 AM on Sunday 21 Dec 2014 (Local Time) from KINL Reporting Station
Haze Haze  
Wind Chill: 24°   Ceiling: 700
Heat Index: 29°   Visibility: 5mi
Dew Point: 26°   Wind: 5mph
Humidity: 89%   Direction: NA
Pressure: 29.79"   Gusts: NA
Location:  48.2756°N, 93.4004°W
Report Text: KINL 211455Z AUTO VRB04KT 5SM BR OVC007 M02/M03 A2979 RMK AO2 SNE34 SLP107 P0001 60002 T10171033 58014
Loading
Personal Weather Stations






























Interactive Weather Map New forecast layout! Learn more

10-Day Weather Forecast

Advertisements
Track Severe Weather on mobile